Time;durP1;ratioP1;P1;durP2;ratioP2;P2;SDS_P1;SDS_P2;PMS_P1;PMS_P2;Temp;Humidity;BMP_temperature;BMP_pressure;BME280_temperature;BME280_humidity;BME280_pressure;Samples;Min_cycle;Max_cycle;Signal;HPM_P1;HPM_P2
2024/01/23 00:00:35;;;;;;;0.30;0.20;;;;;;;8.16;95.27;100655.19;5063747;28;20862;-51
2024/01/23 00:03:02;;;;;;;0.30;0.20;;;;;;;8.11;95.09;100669.38;5068680;28;20499;-51
2024/01/23 00:05:29;;;;;;;0.30;0.20;;;;;;;8.17;95.25;100672.81;5072499;28;20446;-51
2024/01/23 00:07:55;;;;;;;0.30;0.20;;;;;;;8.08;94.42;100694.09;5071677;28;20454;-53
2024/01/23 00:10:22;;;;;;;0.53;0.50;;;;;;;8.09;94.52;100693.22;5072193;28;20502;-52
2024/01/23 00:12:49;;;;;;;0.30;0.20;;;;;;;8.09;94.54;100687.06;5071574;28;20560;-51
2024/01/23 00:15:18;;;;;;;0.30;0.20;;;;;;;8.04;95.06;100689.75;5071982;28;20507;-51
2024/01/23 00:17:44;;;;;;;0.30;0.20;;;;;;;8.01;94.22;100671.25;5071659;28;20458;-51
2024/01/23 00:20:11;;;;;;;0.30;0.20;;;;;;;8.12;94.09;100681.72;5071821;28;20456;-51
2024/01/23 00:22:38;;;;;;;0.30;0.20;;;;;;;8.21;94.04;100674.50;5071413;28;20474;-51
2024/01/23 00:25:04;;;;;;;0.30;0.20;;;;;;;8.23;93.46;100677.16;5065685;28;20473;-51
2024/01/23 00:27:31;;;;;;;0.30;0.20;;;;;;;8.18;93.40;100668.41;5071409;28;20486;-52
2024/01/23 00:29:57;;;;;;;0.30;0.20;;;;;;;8.28;93.65;100667.38;5071551;28;20454;-51
2024/01/23 00:32:28;;;;;;;0.30;0.20;;;;;;;8.24;93.04;100668.34;5071407;28;20521;-51
2024/01/23 00:34:54;;;;;;;0.30;0.20;;;;;;;8.19;93.54;100676.31;5065256;28;20807;-52
2024/01/23 00:37:21;;;;;;;0.30;0.20;;;;;;;8.11;94.04;100667.59;5063403;28;20442;-51
2024/01/23 00:39:48;;;;;;;0.30;0.20;;;;;;;8.11;93.47;100679.97;5051467;28;20542;-52
2024/01/23 00:42:14;;;;;;;0.30;0.20;;;;;;;8.14;93.50;100675.50;5071283;28;20553;-51
2024/01/23 00:44:41;;;;;;;0.30;0.20;;;;;;;8.11;93.52;100679.97;5071513;28;20450;-51
2024/01/23 00:47:07;;;;;;;0.30;0.20;;;;;;;8.00;93.98;100696.84;5071841;28;20537;-52
2024/01/23 00:49:33;;;;;;;0.30;0.20;;;;;;;8.00;93.46;100707.44;5073487;28;20455;-51
2024/01/23 00:52:00;;;;;;;0.30;0.20;;;;;;;8.07;93.80;100707.34;5075402;28;20578;-52
2024/01/23 00:54:26;;;;;;;0.30;0.20;;;;;;;8.02;93.36;100702.13;5056660;28;20557;-51
2024/01/23 00:56:53;;;;;;;0.30;0.20;;;;;;;7.99;93.58;100712.75;5048663;28;20454;-51
2024/01/23 00:59:19;;;;;;;0.30;0.20;;;;;;;8.01;93.04;100703.91;5075669;28;20454;-51
2024/01/23 01:01:46;;;;;;;0.30;0.20;;;;;;;8.02;93.18;100700.34;5048786;28;20557;-52
2024/01/23 01:04:13;;;;;;;0.30;0.20;;;;;;;7.89;92.78;100695.22;5075307;28;20511;-51
2024/01/23 01:06:39;;;;;;;0.30;0.20;;;;;;;7.87;93.10;100695.22;5049001;28;20985;-51
2024/01/23 01:09:06;;;;;;;0.30;0.20;;;;;;;7.94;92.25;100711.91;5075293;28;20473;-50
2024/01/23 01:11:32;;;;;;;0.30;0.20;;;;;;;7.97;93.16;100728.66;5074835;28;20970;-52
2024/01/23 01:13:59;;;;;;;0.30;0.20;;;;;;;7.93;92.53;100732.22;5074844;28;20454;-51
2024/01/23 01:16:25;;;;;;;0.30;0.20;;;;;;;7.90;92.68;100736.66;5075009;28;20481;-51
2024/01/23 01:18:53;;;;;;;0.30;0.20;;;;;;;7.90;92.84;100747.25;5074748;28;20543;-53
2024/01/23 01:21:19;;;;;;;0.30;0.20;;;;;;;7.94;91.67;100757.78;5075259;28;20462;-52
2024/01/23 01:23:46;;;;;;;0.30;0.20;;;;;;;7.95;91.78;100769.28;5068639;28;20865;-52
2024/01/23 01:26:12;;;;;;;0.30;0.20;;;;;;;8.05;91.35;100764.75;5074999;28;20450;-52
2024/01/23 01:28:39;;;;;;;0.30;0.20;;;;;;;8.12;91.57;100761.16;5074558;28;20800;-51
2024/01/23 01:31:05;;;;;;;0.30;0.20;;;;;;;8.02;91.84;100763.88;5074493;28;20949;-51
2024/01/23 01:33:32;;;;;;;0.30;0.20;;;;;;;7.96;91.28;100763.97;5067971;28;20450;-51
2024/01/23 01:35:58;;;;;;;0.30;0.20;;;;;;;7.97;91.65;100762.19;5071752;28;20955;-53
2024/01/23 01:38:25;;;;;;;0.30;0.20;;;;;;;7.88;91.54;100756.97;5054634;28;20474;-52
2024/01/23 01:40:51;;;;;;;2.20;2.10;;;;;;;7.86;91.99;100754.34;5062527;28;20862;-52
2024/01/23 01:43:25;;;;;;;0.30;0.20;;;;;;;7.80;92.20;100753.53;5074420;28;20450;-53
2024/01/23 01:46:12;;;;;;;0.30;0.20;;;;;;;7.79;91.86;100760.59;5074382;28;20449;-52
2024/01/23 01:48:39;;;;;;;0.30;0.20;;;;;;;7.70;92.64;100761.56;5056878;28;21038;-52
2024/01/23 01:51:06;;;;;;;0.30;0.20;;;;;;;7.83;91.92;100778.22;5074096;28;20500;-52
2024/01/23 01:53:34;;;;;;;0.30;0.20;;;;;;;7.69;92.49;100770.41;5069697;28;20446;-52
2024/01/23 01:56:03;;;;;;;0.30;0.20;;;;;;;7.76;91.46;100763.25;5059532;28;20797;-52
2024/01/23 01:58:31;;;;;;;0.30;0.20;;;;;;;7.70;91.83;100758.94;5074015;28;20478;-52
2024/01/23 02:00:59;;;;;;;0.30;0.20;;;;;;;7.71;91.94;100746.56;5074038;28;20464;-51
2024/01/23 02:03:27;;;;;;;0.30;0.20;;;;;;;7.63;91.83;100745.75;5048137;28;20454;-51
2024/01/23 02:05:55;;;;;;;0.30;0.20;;;;;;;7.69;92.78;100745.72;5074143;28;20450;-52
2024/01/23 02:08:22;;;;;;;0.30;0.20;;;;;;;7.66;92.18;100738.66;5074222;28;20445;-52
2024/01/23 02:10:48;;;;;;;0.30;0.20;;;;;;;7.63;92.95;100740.47;5073641;28;20551;-52
2024/01/23 02:13:15;;;;;;;0.30;0.20;;;;;;;7.67;92.24;100744.81;5074017;28;20505;-52
2024/01/23 02:15:41;;;;;;;0.30;0.20;;;;;;;7.59;92.67;100747.56;5073900;28;20505;-52
2024/01/23 02:18:08;;;;;;;0.30;0.20;;;;;;;7.70;92.83;100765.97;5074108;28;20492;-52
2024/01/23 02:20:34;;;;;;;0.30;0.20;;;;;;;7.74;92.92;100780.94;5073846;28;20450;-52
2024/01/23 02:23:01;;;;;;;0.30;0.20;;;;;;;7.78;93.67;100801.16;5073775;28;20575;-52
2024/01/23 02:25:27;;;;;;;0.30;0.20;;;;;;;7.88;94.24;100812.56;5066531;28;20825;-52
2024/01/23 02:27:54;;;;;;;0.30;0.20;;;;;;;7.88;94.19;100826.66;5073738;28;20450;-50
2024/01/23 02:30:20;;;;;;;0.30;0.20;;;;;;;7.92;95.81;100809.88;5073531;28;20452;-49
2024/01/23 02:32:47;;;;;;;0.30;0.20;;;;;;;7.82;98.00;100825.88;5072604;28;20465;-50
2024/01/23 02:35:14;;;;;;;0.30;0.20;;;;;;;7.61;98.36;100797.81;5068459;28;20460;-50
2024/01/23 02:37:40;;;;;;;0.30;0.20;;;;;;;7.39;99.67;100791.78;5064694;28;21046;-49
2024/01/23 02:40:07;;;;;;;0.30;0.13;;;;;;;7.38;98.38;100803.25;5055406;28;20854;-48
2024/01/23 02:42:34;;;;;;;0.30;0.20;;;;;;;7.03;100.00;100795.59;5073241;28;20468;-49
2024/01/23 02:45:00;;;;;;;0.30;0.20;;;;;;;6.94;100.00;100803.56;5073268;28;20819;-50
2024/01/23 02:47:27;;;;;;;0.30;0.20;;;;;;;6.97;100.00;100840.53;5073357;28;20454;-50
2024/01/23 02:49:54;;;;;;;0.30;0.20;;;;;;;7.06;100.00;100844.00;5073172;28;20533;-50
2024/01/23 02:52:21;;;;;;;0.30;0.20;;;;;;;6.94;100.00;100852.00;5074798;22;20504;-53
2024/01/23 02:54:47;;;;;;;0.30;0.20;;;;;;;6.92;100.00;100822.06;5033888;28;20531;-50
2024/01/23 02:57:14;;;;;;;0.30;0.20;;;;;;;6.61;100.00;100845.09;5024505;28;20453;-49
2024/01/23 02:59:40;;;;;;;0.30;0.10;;;;;;;6.70;100.00;100837.13;5017255;28;20542;-53
2024/01/23 03:02:07;;;;;;;0.30;0.20;;;;;;;6.68;100.00;100861.78;5033694;28;20482;-50
2024/01/23 03:04:33;;;;;;;0.30;0.20;;;;;;;6.60;100.00;100848.63;5033611;28;20821;-50
2024/01/23 03:07:01;;;;;;;0.30;0.20;;;;;;;6.55;100.00;100858.31;5033505;28;20451;-51
2024/01/23 03:09:27;;;;;;;0.30;0.20;;;;;;;6.62;100.00;100854.78;5033743;28;20538;-50
2024/01/23 03:11:54;;;;;;;0.30;0.20;;;;;;;6.60;100.00;100860.97;5032659;28;20499;-50
2024/01/23 03:14:21;;;;;;;0.30;0.20;;;;;;;6.71;100.00;100875.84;5033582;28;20513;-51
2024/01/23 03:16:47;;;;;;;0.30;0.20;;;;;;;6.71;100.00;100890.84;5033644;28;20546;-50
2024/01/23 03:19:14;;;;;;;0.30;0.20;;;;;;;6.81;100.00;100879.34;5033401;28;20486;-51
2024/01/23 03:21:40;;;;;;;0.30;0.20;;;;;;;6.96;100.00;100881.94;5033302;28;20452;-50
2024/01/23 03:24:07;;;;;;;0.30;0.20;;;;;;;7.03;100.00;100893.38;5033098;28;20494;-51
2024/01/23 03:26:33;;;;;;;0.30;0.20;;;;;;;6.99;100.00;100892.53;5032832;28;20964;-51
2024/01/23 03:29:00;;;;;;;0.30;0.10;;;;;;;6.84;100.00;100885.50;5032829;28;20462;-51
2024/01/23 03:31:26;;;;;;;0.30;0.20;;;;;;;6.73;100.00;100884.69;5032780;28;20859;-52
2024/01/23 03:33:52;;;;;;;0.30;0.20;;;;;;;6.40;100.00;100888.28;5032603;28;20464;-53
2024/01/23 03:36:19;;;;;;;0.30;0.20;;;;;;;6.20;100.00;100896.25;5032730;28;20452;-50
2024/01/23 03:38:48;;;;;;;0.30;0.20;;;;;;;6.02;100.00;100908.53;5032603;28;20451;-50
2024/01/23 03:41:15;;;;;;;0.30;0.20;;;;;;;5.80;100.00;100897.09;5032803;28;20987;-50
2024/01/23 03:43:45;;;;;;;0.30;0.20;;;;;;;5.85;100.00;100900.59;5032649;28;20468;-50
2024/01/23 03:46:12;;;;;;;0.30;0.20;;;;;;;5.87;100.00;100905.00;5032779;28;20545;-49
2024/01/23 03:48:38;;;;;;;0.30;0.20;;;;;;;5.92;100.00;100905.94;5032597;28;20994;-50
2024/01/23 03:51:06;;;;;;;0.30;0.20;;;;;;;6.19;100.00;100905.03;5032681;28;20523;-51
2024/01/23 03:53:33;;;;;;;0.30;0.20;;;;;;;6.39;100.00;100904.13;5032383;28;20475;-50
2024/01/23 03:56:00;;;;;;;0.30;0.20;;;;;;;6.56;100.00;100912.00;5032712;28;20459;-52
2024/01/23 03:58:26;;;;;;;0.30;0.20;;;;;;;6.63;100.00;100906.72;5032454;28;20548;-52
2024/01/23 04:00:53;;;;;;;0.30;0.20;;;;;;;6.70;100.00;100916.38;5032488;28;20458;-51
2024/01/23 04:03:19;;;;;;;0.30;0.10;;;;;;;6.79;100.00;100933.97;5032133;28;20477;-50
2024/01/23 04:05:46;;;;;;;0.30;0.10;;;;;;;6.86;100.00;100948.06;5032515;28;20502;-50
2024/01/23 04:08:12;;;;;;;0.30;0.20;;;;;;;6.98;100.00;100950.63;5032425;28;20571;-50
2024/01/23 04:10:39;;;;;;;0.30;0.20;;;;;;;7.08;100.00;100949.72;5032159;28;20462;-50
2024/01/23 04:13:06;;;;;;;0.30;0.20;;;;;;;7.03;100.00;100952.41;5031913;28;20491;-51
2024/01/23 04:15:32;;;;;;;0.30;0.20;;;;;;;7.06;100.00;100957.66;5031970;28;20452;-50
2024/01/23 04:17:59;;;;;;;0.30;0.20;;;;;;;7.06;100.00;100959.44;5032070;28;20456;-51
2024/01/23 04:20:25;;;;;;;0.30;0.20;;;;;;;7.01;100.00;100966.50;5032010;28;20455;-50
2024/01/23 04:22:52;;;;;;;0.30;0.20;;;;;;;7.06;100.00;100973.53;5032000;28;20472;-52
2024/01/23 04:25:18;;;;;;;0.30;0.20;;;;;;;6.93;100.00;100979.72;5031782;28;20538;-51
2024/01/23 04:27:45;;;;;;;0.30;0.20;;;;;;;6.81;100.00;100975.34;5032101;28;20479;-52
2024/01/23 04:30:11;;;;;;;0.30;0.20;;;;;;;6.70;100.00;100977.13;5031651;28;20558;-51
2024/01/23 04:32:38;;;;;;;0.30;0.20;;;;;;;6.55;100.00;100985.06;5031970;28;20499;-52
2024/01/23 04:35:05;;;;;;;0.30;0.20;;;;;;;6.36;100.00;100981.59;5032022;28;20459;-52
2024/01/23 04:37:31;;;;;;;0.30;0.20;;;;;;;6.18;100.00;100978.94;5031806;28;20515;-51
2024/01/23 04:39:58;;;;;;;0.30;0.20;;;;;;;6.14;100.00;100982.44;5032129;28;20545;-52
2024/01/23 04:42:25;;;;;;;0.30;0.10;;;;;;;6.27;100.00;100997.41;5033369;28;20467;-52
2024/01/23 04:44:51;;;;;;;0.30;0.20;;;;;;;6.04;100.00;101002.69;5032470;28;20451;-52
2024/01/23 04:47:18;;;;;;;0.30;0.20;;;;;;;5.70;100.00;101011.38;5032041;28;20542;-52
2024/01/23 04:49:45;;;;;;;0.47;0.43;;;;;;;5.73;100.00;101021.91;5032228;28;20483;-50
2024/01/23 04:52:11;;;;;;;0.30;0.20;;;;;;;5.59;100.00;101024.50;5031897;28;20579;-51
2024/01/23 04:54:38;;;;;;;0.30;0.20;;;;;;;5.31;100.00;101024.41;5032530;28;20432;-51
2024/01/23 04:57:04;;;;;;;0.30;0.20;;;;;;;5.36;100.00;101032.34;5032864;28;20945;-51
2024/01/23 04:59:31;;;;;;;0.30;0.20;;;;;;;5.28;100.00;101034.94;5033278;28;20514;-51
2024/01/23 05:01:57;;;;;;;0.30;0.20;;;;;;;5.21;100.00;101046.34;5033426;28;20474;-51
2024/01/23 05:04:23;;;;;;;0.30;0.20;;;;;;;5.20;100.00;101048.94;5033608;28;20547;-51
2024/01/23 05:06:50;;;;;;;0.20;0.13;;;;;;;5.00;100.00;101043.56;5037177;28;20459;-52
2024/01/23 05:09:17;;;;;;;0.30;0.20;;;;;;;4.81;100.00;101047.84;5033329;28;20443;-51
2024/01/23 05:11:43;;;;;;;0.30;0.20;;;;;;;4.89;100.00;101061.91;5032991;28;20510;-52
2024/01/23 05:14:10;;;;;;;0.30;0.20;;;;;;;4.80;100.00;101066.22;5033035;28;20834;-53
2024/01/23 05:16:37;;;;;;;0.30;0.20;;;;;;;4.74;100.00;101074.97;5034890;28;20486;-52
2024/01/23 05:19:03;;;;;;;0.30;0.17;;;;;;;4.79;100.00;101075.00;5034486;28;20503;-51
2024/01/23 05:21:30;;;;;;;0.30;0.20;;;;;;;4.67;100.00;101079.34;5036016;28;20444;-52
2024/01/23 05:23:57;;;;;;;0.30;0.20;;;;;;;4.61;100.00;101083.66;5034504;28;20509;-51
2024/01/23 05:26:23;;;;;;;0.30;0.20;;;;;;;4.88;100.00;101082.97;5033716;28;20509;-51
2024/01/23 05:28:50;;;;;;;0.30;0.20;;;;;;;4.65;100.00;101098.59;5032412;28;20460;-52
2024/01/23 05:31:16;;;;;;;0.30;0.20;;;;;;;4.92;100.00;101098.81;5031288;28;20482;-51
2024/01/23 05:33:43;;;;;;;0.30;0.20;;;;;;;4.82;100.00;101104.91;5031157;28;20968;-52
2024/01/23 05:36:13;;;;;;;0.30;0.10;;;;;;;4.75;100.00;101106.59;5034259;28;20458;-53
2024/01/23 05:38:40;;;;;;;0.30;0.10;;;;;;;4.96;100.00;101110.28;5034863;28;20542;-53
2024/01/23 05:41:06;;;;;;;0.20;0.10;;;;;;;4.85;100.00;101119.84;5034756;28;21123;-51
2024/01/23 05:43:33;;;;;;;0.23;0.20;;;;;;;5.02;100.00;101123.47;5034952;28;20499;-51
2024/01/23 05:45:59;;;;;;;0.20;0.10;;;;;;;4.92;100.00;101135.69;5034961;28;20447;-51
2024/01/23 05:48:25;;;;;;;0.23;0.20;;;;;;;4.85;100.00;101120.72;5034876;28;20461;-52
2024/01/23 05:50:52;;;;;;;0.20;0.20;;;;;;;4.76;100.00;101139.06;5035084;28;20555;-51
2024/01/23 05:53:19;;;;;;;0.20;0.10;;;;;;;4.57;100.00;101137.16;5034230;28;21059;-51
2024/01/23 05:55:45;;;;;;;0.20;0.10;;;;;;;5.01;100.00;101134.91;5034622;28;20455;-52
2024/01/23 05:58:12;;;;;;;0.20;0.13;;;;;;;5.24;100.00;101143.84;5034549;28;20971;-51
2024/01/23 06:00:39;;;;;;;0.20;0.10;;;;;;;5.38;100.00;101149.22;5034738;28;20483;-51
2024/01/23 06:03:05;;;;;;;0.20;0.10;;;;;;;5.55;100.00;101150.19;5034988;28;20522;-52
2024/01/23 06:05:32;;;;;;;0.20;0.10;;;;;;;5.61;100.00;101157.25;5034627;28;20870;-51
2024/01/23 06:07:58;;;;;;;0.30;0.20;;;;;;;5.58;100.00;101171.31;5034388;28;20819;-52
2024/01/23 06:10:26;;;;;;;0.20;0.20;;;;;;;5.44;99.88;101182.63;5034398;28;20459;-51
2024/01/23 06:12:53;;;;;;;0.20;0.10;;;;;;;5.30;100.00;101179.91;5034061;28;20868;-51
2024/01/23 06:15:19;;;;;;;0.30;0.17;;;;;;;5.35;100.00;101172.94;5034958;28;20458;-51
2024/01/23 06:17:46;;;;;;;0.20;0.20;;;;;;;5.08;99.82;101178.88;5035169;28;20494;-52
2024/01/23 06:20:12;;;;;;;0.20;0.20;;;;;;;4.92;100.00;101198.03;5034810;28;20483;-52
2024/01/23 06:22:40;;;;;;;0.20;0.10;;;;;;;4.74;100.00;101201.38;5034603;28;20820;-53
2024/01/23 06:25:08;;;;;;;0.20;0.20;;;;;;;4.73;100.00;101210.16;5034880;28;20451;-52
2024/01/23 06:27:35;;;;;;;0.20;0.20;;;;;;;4.71;100.00;101225.06;5034903;28;20483;-53
2024/01/23 06:30:03;;;;;;;0.20;0.20;;;;;;;4.52;100.00;101226.59;5035809;28;20447;-52
2024/01/23 06:32:30;;;;;;;0.20;0.10;;;;;;;4.35;100.00;101230.78;5037408;28;20495;-53
2024/01/23 06:34:57;;;;;;;0.20;0.20;;;;;;;4.33;100.00;101241.31;5034735;28;20842;-52
2024/01/23 06:37:23;;;;;;;0.20;0.20;;;;;;;4.34;100.00;101248.31;5036531;28;20483;-52
2024/01/23 06:39:50;;;;;;;0.20;0.20;;;;;;;4.32;100.00;101238.66;5034731;28;20446;-52
2024/01/23 06:42:21;;;;;;;0.30;0.20;;;;;;;4.25;100.00;101250.88;5027961;28;20474;-51
2024/01/23 06:44:47;;;;;;;0.30;0.17;;;;;;;4.30;100.00;101254.44;5034594;28;20443;-51
2024/01/23 06:47:14;;;;;;;0.20;0.13;;;;;;;4.56;100.00;101259.13;5034925;28;20530;-51
2024/01/23 06:49:40;;;;;;;0.20;0.10;;;;;;;4.80;100.00;101256.78;5040212;28;20451;-52
2024/01/23 06:52:07;;;;;;;0.20;0.20;;;;;;;5.11;100.00;101255.31;5037477;28;20981;-51
2024/01/23 06:54:33;;;;;;;0.20;0.17;;;;;;;5.38;100.00;101257.31;5039005;28;20528;-51
2024/01/23 06:57:00;;;;;;;0.20;0.20;;;;;;;5.53;100.00;101264.44;5037308;28;20448;-52
2024/01/23 06:59:27;;;;;;;0.20;0.10;;;;;;;5.62;100.00;101270.69;5034033;28;20889;-51
2024/01/23 07:01:54;;;;;;;0.20;0.10;;;;;;;5.70;99.15;101270.72;5033108;28;20475;-52
2024/01/23 07:04:20;;;;;;;0.20;0.17;;;;;;;5.68;99.29;101280.38;5033407;28;20478;-52
2024/01/23 07:06:47;;;;;;;0.20;0.10;;;;;;;5.68;98.83;101288.28;5033595;28;20451;-51
2024/01/23 07:09:14;;;;;;;0.20;0.10;;;;;;;5.61;99.67;101286.47;5033572;28;20444;-52
2024/01/23 07:11:42;;;;;;;0.30;0.20;;;;;;;5.57;98.75;101297.88;5033308;28;20476;-51
2024/01/23 07:14:09;;;;;;;0.20;0.10;;;;;;;5.59;98.18;101302.28;5033367;28;20883;-52
2024/01/23 07:16:36;;;;;;;0.20;0.10;;;;;;;5.47;98.13;101309.19;5035042;28;20501;-53
2024/01/23 07:19:02;;;;;;;0.30;0.20;;;;;;;5.60;98.51;101313.72;5033639;28;20475;-52
2024/01/23 07:21:29;;;;;;;0.20;0.10;;;;;;;5.52;98.82;101313.66;5033415;28;20475;-52
2024/01/23 07:23:55;;;;;;;0.30;0.20;;;;;;;5.34;98.35;101316.13;5033292;28;20447;-52
2024/01/23 07:26:22;;;;;;;0.20;0.20;;;;;;;5.02;98.85;101321.97;5033223;28;20452;-52
2024/01/23 07:28:48;;;;;;;0.20;0.10;;;;;;;4.84;99.83;101337.56;5032806;28;20495;-53
2024/01/23 07:31:27;;;;;;;0.20;0.20;;;;;;;4.39;100.00;101343.16;5033803;28;20447;-52
2024/01/23 07:33:53;;;;;;;0.20;0.20;;;;;;;4.59;100.00;101349.56;5033696;28;20492;-52
2024/01/23 07:36:20;;;;;;;0.20;0.20;;;;;;;4.50;100.00;101352.06;5033928;28;20456;-53
2024/01/23 07:38:47;;;;;;;0.20;0.20;;;;;;;4.28;100.00;101360.53;5033519;28;20474;-52
2024/01/23 07:41:13;;;;;;;0.20;0.10;;;;;;;4.37;100.00;101365.91;5035192;28;20444;-52
2024/01/23 07:43:39;;;;;;;0.20;0.10;;;;;;;4.36;100.00;101385.19;5034213;28;20464;-51
2024/01/23 07:46:06;;;;;;;0.20;0.10;;;;;;;4.26;100.00;101388.59;5016089;28;20443;-53
2024/01/23 07:48:32;;;;;;;0.20;0.10;;;;;;;4.33;100.00;101391.31;5015634;28;21023;-52
2024/01/23 07:50:59;;;;;;;0.20;0.10;;;;;;;4.43;100.00;101395.84;5033152;28;20452;-51
2024/01/23 07:53:26;;;;;;;0.20;0.10;;;;;;;4.51;100.00;101395.94;5032887;28;20579;-52
2024/01/23 07:55:52;;;;;;;0.20;0.10;;;;;;;4.52;100.00;101400.34;5032998;28;20513;-52
2024/01/23 07:58:19;;;;;;;0.20;0.17;;;;;;;4.50;100.00;101394.19;5032529;28;20452;-51
2024/01/23 08:00:45;;;;;;;0.20;0.20;;;;;;;4.54;100.00;101397.75;5033045;28;20811;-52
2024/01/23 08:03:12;;;;;;;0.20;0.10;;;;;;;4.48;100.00;101406.44;5032429;28;20487;-51
2024/01/23 08:05:40;;;;;;;0.20;0.20;;;;;;;4.74;100.00;101412.06;5035378;28;20507;-52
2024/01/23 08:08:07;;;;;;;0.20;0.10;;;;;;;4.70;100.00;101412.91;5032249;28;20937;-51
2024/01/23 08:10:34;;;;;;;0.20;0.20;;;;;;;4.60;100.00;101416.25;5033016;28;20444;-52
2024/01/23 08:13:02;;;;;;;0.20;0.13;;;;;;;4.64;100.00;101418.06;5032069;28;20495;-51
2024/01/23 08:15:28;;;;;;;0.20;0.20;;;;;;;4.69;100.00;101421.66;5036532;28;20536;-50
2024/01/23 08:17:55;;;;;;;0.20;0.20;;;;;;;4.57;100.00;101425.00;5037307;28;20460;-52
2024/01/23 08:20:22;;;;;;;0.20;0.10;;;;;;;4.79;100.00;101428.78;5032875;28;20455;-50
2024/01/23 08:22:48;;;;;;;0.20;0.10;;;;;;;5.02;100.00;101426.47;5033326;28;20469;-51
2024/01/23 08:25:15;;;;;;;0.20;0.10;;;;;;;4.96;100.00;101421.13;5033734;28;20490;-51
2024/01/23 08:27:42;;;;;;;0.20;0.20;;;;;;;5.17;100.00;101423.13;5032711;28;20451;-53
2024/01/23 08:30:14;;;;;;;0.20;0.20;;;;;;;5.42;100.00;101424.28;5033178;28;20471;-51
2024/01/23 08:32:40;;;;;;;0.20;0.10;;;;;;;5.64;100.00;101424.53;5032174;28;20495;-51
2024/01/23 08:35:07;;;;;;;0.23;0.17;;;;;;;5.71;99.99;101428.09;5032402;28;20463;-51
2024/01/23 08:37:34;;;;;;;0.20;0.20;;;;;;;5.84;99.57;101426.47;5031907;28;20523;-50
2024/01/23 08:40:00;;;;;;;0.20;0.10;;;;;;;6.08;98.44;101423.19;5031900;28;20509;-52
2024/01/23 08:42:27;;;;;;;0.20;0.20;;;;;;;6.21;98.46;101432.97;5031819;28;20968;-51
2024/01/23 08:44:55;;;;;;;0.20;0.20;;;;;;;6.30;97.92;101440.06;5014208;28;20478;-50
2024/01/23 08:47:22;;;;;;;0.20;0.20;;;;;;;6.42;98.03;101442.81;5031752;28;20451;-51
2024/01/23 08:49:48;;;;;;;0.20;0.20;;;;;;;6.43;97.97;101439.28;5031395;28;20932;-50
2024/01/23 08:52:15;;;;;;;0.20;0.20;;;;;;;6.57;97.40;101448.19;5045595;23;20495;-53
2024/01/23 08:54:42;;;;;;;0.30;0.20;;;;;;;6.65;97.70;101451.78;5036794;28;20452;-52
2024/01/23 08:57:09;;;;;;;0.30;0.20;;;;;;;6.63;97.75;101442.06;5051279;28;20545;-52
2024/01/23 08:59:38;;;;;;;0.30;0.20;;;;;;;6.62;98.35;101450.88;5051311;28;20454;-52
2024/01/23 09:02:04;;;;;;;0.30;0.20;;;;;;;6.52;99.33;101455.19;5051233;28;20865;-51
2024/01/23 09:04:31;;;;;;;0.30;0.20;;;;;;;6.64;99.27;101450.00;5050887;28;20878;-51
2024/01/23 09:06:57;;;;;;;0.30;0.20;;;;;;;6.82;97.95;101465.94;5051276;28;20454;-51
2024/01/23 09:09:24;;;;;;;0.30;0.20;;;;;;;6.86;97.88;101472.16;5051242;28;20529;-52
2024/01/23 09:11:50;;;;;;;0.30;0.20;;;;;;;6.94;98.14;101490.69;5036112;28;20459;-51
2024/01/23 09:14:17;;;;;;;0.30;0.20;;;;;;;6.93;97.72;101481.88;5024278;28;20946;-51
2024/01/23 09:16:43;;;;;;;0.30;0.20;;;;;;;7.16;97.70;101494.34;5045056;28;20541;-51
2024/01/23 09:19:10;;;;;;;0.30;0.20;;;;;;;7.30;97.70;101498.81;5050662;28;20566;-51
2024/01/23 09:21:36;;;;;;;0.30;0.20;;;;;;;7.43;96.98;101512.97;5054909;28;21001;-51
2024/01/23 09:24:03;;;;;;;0.30;0.20;;;;;;;7.54;96.61;101516.56;5048570;28;20466;-51
2024/01/23 09:26:30;;;;;;;0.30;0.20;;;;;;;7.50;96.16;101516.50;5054849;28;20977;-50
2024/01/23 09:28:56;;;;;;;0.30;0.20;;;;;;;7.92;95.35;101521.03;5054735;28;20453;-51
2024/01/23 09:31:23;;;;;;;0.30;0.20;;;;;;;7.90;95.30;101513.09;5047082;28;20436;-51
2024/01/23 09:33:49;;;;;;;0.30;0.20;;;;;;;7.98;94.54;101513.13;5051479;28;20490;-51
2024/01/23 09:36:16;;;;;;;0.30;0.20;;;;;;;8.13;93.57;101517.56;5049639;28;20459;-51
2024/01/23 09:38:43;;;;;;;0.30;0.20;;;;;;;8.14;94.05;101512.25;5034481;28;20459;-51
2024/01/23 09:41:11;;;;;;;0.30;0.20;;;;;;;8.17;93.37;101514.03;5045654;28;20446;-51
2024/01/23 09:43:42;;;;;;;0.30;0.20;;;;;;;8.31;93.08;101513.16;5054403;28;20549;-51
2024/01/23 09:46:11;;;;;;;0.30;0.20;;;;;;;7.99;93.21;101512.25;5054658;28;20450;-51
2024/01/23 09:48:39;;;;;;;0.30;0.20;;;;;;;8.10;93.38;101520.22;5054427;28;20500;-52
2024/01/23 09:51:14;;;;;;;0.30;0.20;;;;;;;7.98;93.26;101524.59;5054398;28;20484;-52
2024/01/23 09:53:43;;;;;;;0.30;0.20;;;;;;;8.07;93.09;101528.13;5047503;28;20495;-52
2024/01/23 09:56:11;;;;;;;0.30;0.20;;;;;;;8.13;92.29;101523.75;5042941;28;20454;-52
2024/01/23 09:58:37;;;;;;;0.30;0.20;;;;;;;8.26;92.06;101529.94;5054340;28;20451;-52
2024/01/23 10:01:05;;;;;;;0.30;0.20;;;;;;;8.28;91.91;101534.34;5054000;28;20918;-53
2024/01/23 10:03:33;;;;;;;0.30;0.20;;;;;;;8.48;91.26;101528.19;5042263;28;20990;-53
2024/01/23 10:06:01;;;;;;;0.30;0.20;;;;;;;8.46;90.91;101541.44;5053899;28;20862;-53
2024/01/23 10:08:28;;;;;;;0.30;0.20;;;;;;;8.46;90.82;101537.91;5046118;28;20447;-53
2024/01/23 10:11:01;;;;;;;0.30;0.20;;;;;;;8.44;90.82;101537.03;5049034;28;20822;-53
2024/01/23 10:13:28;;;;;;;0.30;0.20;;;;;;;8.55;90.45;101540.56;5053758;28;20469;-53
2024/01/23 10:15:55;;;;;;;0.30;0.20;;;;;;;8.49;90.75;101520.25;5053690;28;21001;-53
2024/01/23 10:18:22;;;;;;;0.30;0.20;;;;;;;8.46;90.61;101528.19;5052547;28;20443;-51
2024/01/23 10:20:53;;;;;;;0.30;0.20;;;;;;;8.52;91.06;101525.56;5049682;28;20493;-52
2024/01/23 10:23:20;;;;;;;0.30;0.20;;;;;;;8.65;89.59;101521.16;5035577;28;20558;-53
2024/01/23 10:25:47;;;;;;;0.30;0.20;;;;;;;8.57;90.50;101526.44;5051396;28;20451;-53
2024/01/23 10:28:14;;;;;;;0.30;0.20;;;;;;;8.76;88.92;101523.75;5051481;28;20458;-53
2024/01/23 10:30:43;;;;;;;0.30;0.20;;;;;;;8.81;88.48;101529.97;5053842;28;20546;-53
2024/01/23 10:33:10;;;;;;;0.30;0.20;;;;;;;8.90;88.01;101524.63;5053681;28;20509;-53
2024/01/23 10:35:38;;;;;;;0.30;0.20;;;;;;;8.95;87.50;101519.34;5053609;28;20447;-54
2024/01/23 10:38:07;;;;;;;0.30;0.20;;;;;;;8.80;87.81;101510.53;5025636;28;20543;-53
2024/01/23 10:40:34;;;;;;;0.30;0.20;;;;;;;8.99;87.14;101505.16;5031012;28;20482;-53
2024/01/23 10:43:01;;;;;;;0.30;0.20;;;;;;;9.05;87.46;101499.88;5053527;28;20466;-53
2024/01/23 10:45:30;;;;;;;0.30;0.20;;;;;;;9.11;86.12;101506.03;5053148;28;20474;-53
2024/01/23 10:47:59;;;;;;;0.30;0.20;;;;;;;9.04;86.43;101512.22;5053497;28;21022;-52
2024/01/23 10:50:26;;;;;;;0.30;0.20;;;;;;;9.19;85.91;101509.53;5053407;28;20951;-49
2024/01/23 10:52:54;;;;;;;0.30;0.20;;;;;;;9.28;85.68;101516.56;5052556;28;20701;-51
2024/01/23 10:55:23;;;;;;;0.30;0.20;;;;;;;9.23;84.53;101520.13;5037544;28;20936;-52
2024/01/23 10:57:52;;;;;;;0.30;0.20;;;;;;;9.32;84.84;101533.34;5052816;28;20879;-51
2024/01/23 11:00:19;;;;;;;0.30;0.20;;;;;;;9.26;84.34;101522.78;5053039;28;21113;-51
2024/01/23 11:02:56;;;;;;;0.30;0.20;;;;;;;9.41;83.43;101520.94;5052881;28;20838;-52
2024/01/23 11:05:30;;;;;;;0.30;0.20;;;;;;;9.37;83.59;101537.78;5053162;28;20450;-52
2024/01/23 11:08:09;;;;;;;0.30;0.20;;;;;;;9.33;82.68;101530.72;5034789;28;20430;-52
2024/01/23 11:10:54;;;;;;;0.30;0.20;;;;;;;9.30;83.42;101537.78;5044411;28;20479;-51
2024/01/23 11:13:46;;;;;;;0.30;0.20;;;;;;;9.33;82.47;101543.09;5050923;28;20482;-52
2024/01/23 11:16:13;;;;;;;0.30;0.20;;;;;;;9.42;82.70;101558.97;5052316;28;20864;-52
2024/01/23 11:18:40;;;;;;;0.30;0.20;;;;;;;9.31;80.80;101556.34;5036472;28;20575;-52
2024/01/23 11:21:09;;;;;;;0.30;0.20;;;;;;;9.34;81.05;101559.03;5047929;28;20872;-52
2024/01/23 11:23:38;;;;;;;0.30;0.20;;;;;;;9.27;80.95;101548.41;5047082;28;20454;-52
2024/01/23 11:26:12;;;;;;;0.30;0.20;;;;;;;9.28;81.21;101543.09;5041514;28;20458;-52
2024/01/23 11:28:38;;;;;;;0.30;0.20;;;;;;;9.51;81.36;101551.00;5052400;28;20443;-52